AirNav   Get $300 off a Bose A20
 
 655 users online  

9CA5 California Mart Heliport
Los Angeles, California, USA

GOING TO LOS ANGELES?


FAA INFORMATION EFFECTIVE 23 MAY 2019

Location

FAA Identifier: 9CA5
Lat/Long: 34-02-24.9700N / 118-15-21.5300W
34-02.416167N / 118-15.358833W
34.0402694 / -118.2559806
(estimated)
Elevation: 434 ft. / 132 m (estimated)
Variation: 14E (1985)
From city: 1 mile SW of LOS ANGELES, CA
Time zone: UTC -7 (UTC -8 during Standard Time)
Zip code: 90015

Heliport Operations

Heliport use: Private use. Permission required prior to landing
Activation date: 09/1979
Control tower: no
ARTCC: LOS ANGELES CENTER
FSS: HAWTHORNE FLIGHT SERVICE STATION
Attendance: UNATNDD
Wind indicator: no
Segmented circle: yes

Heliport Communications

WX ASOS at HHR (8 nm SW): PHONE 310-973-8930
WX AWOS-3PT at CPM (9 nm S): 127.150 (310-631-4958)
WX ASOS at LAX (10 nm SW): PHONE 310-568-1486
WX ASOS at SMO (10 nm W): PHONE 310-392-6453
WX ASOS at BUR (11 nm NW): PHONE 818-841-1384
WX AWOS-3PT at EMT (11 nm E): 118.75 ((626) 444-1107)
WX ASOS at LGB (14 nm S): PHONE 562-424-0572
WX AWOS-3PT at WHP (15 nm NW): 132.1 (818-899-9820)
WX ASOS at VNY (15 nm NW): PHONE 818-904-9213
WX ASOS at FUL (17 nm SE): PHONE 714-870-1372

Nearby radio navigation aids

VOR radial/distance  VOR name  Freq  Var
SMOr065/10.1SANTA MONICA VOR/DME110.8015E
LAXr039/10.9LOS ANGELES VORTAC113.6015E
VNYr118/16.1VAN NUYS VOR/DME113.1015E
SLIr312/18.4SEAL BEACH VORTAC115.7015E
POMr249/23.4POMONA VORTAC110.4015E
ELBr296/34.1EL TORO VOR/DME117.2014E
FIMr106/36.4FILLMORE VORTAC112.5015E
PMDr180/36.7PALMDALE VORTAC114.5015E
PDZr266/36.9PARADISE VORTAC112.2015E
VTUr081/39.7VENTURA VOR/DME108.2015E

Heliport Services

Runway Information

Helipad H1

Dimensions: 185 x 87 ft. / 56 x 27 m
Surface: concrete
ROOFTOP HELIPORT.
Latitude: 34-02.416167N
Longitude: 118-15.358833W
Elevation: 434.0 ft.
Traffic pattern: leftleft

Heliport Ownership and Management from official FAA records

Ownership: Privately-owned
Owner: CALIFORNIA MART
110 E 9TH ST SUITE 727
LOS ANGELES, CA 90079-2827
Phone 213-239-9286
Manager: DORON SACHAM
110 E 9TH ST SUITE 727
LOS ANGELES, CA 90079-2827
Phone 213-620-0260

Heliport Operational Statistics

Aircraft based on the field: 1
Helicopters: 1
    

Additional Remarks

FIRE DEPT USE ONLY.

Instrument Procedures

There are no published instrument procedures at 9CA5.

Some nearby airports with instrument procedures:

KHHR - Jack Northrop Field/Hawthorne Municipal Airport (8 nm SW)
KLAX - Los Angeles International Airport (10 nm SW)
KSMO - Santa Monica Municipal Airport (10 nm W)
KBUR - Bob Hope Airport (11 nm NW)
KEMT - San Gabriel Valley Airport (11 nm E)
KLGB - Long Beach Airport (Daugherty Field) (14 nm S)
KTOA - Zamperini Field Airport (15 nm S)
KWHP - Whiteman Airport (15 nm NW)
KVNY - Van Nuys Airport (15 nm NW)
KFUL - Fullerton Municipal Airport (17 nm SE)
 
Loc | Ops | Rwys | IFR | FBO | Links
Com | Nav | Svcs | Stats | Notes
Area around 9CA5 (California Mart Heliport)
 
Road maps at: MapQuest Bing Google
 
Aerial photo
No photo
 
Sectional chart

 
Airport distance calculator
Flying to California Mart Heliport? Find the distance to fly.

From to 9CA5

Sunrise and sunset
Times for 23-May-2019
 Local
(UTC-7)
 Zulu
(UTC)
Morning civil twilight05:1912:19
Sunrise05:4712:47
Sunset19:5202:52
Evening civil twilight20:2003:20

Current date and time
Zulu (UTC)  24-May-2019 04:04:23
Local (UTC-7)  23-May-2019 21:04:23
 
METAR
KCQT 240347Z AUTO 27004KT 10SM CLR 16/10 A3001 RMK AO2 SLP160 T01560100
KHHR 
8nm SW 
240353Z 28004KT 10SM OVC044 16/10 A3002 RMK AO2 SLP165 T01560100
KLAX 
9nm SW 
240353Z 27006KT 10SM BKN040 16/10 A3002 RMK AO2 SLP162 T01560100
KSMO 
10nm W 
240351Z AUTO 00000KT 10SM CLR 15/12 A3002 RMK AO2 SLP165 T01500117
KBUR 
11nm NW 
240353Z 22003KT 10SM FEW025 OVC031 14/09 A3001 RMK AO2 SLP154 T01390094
KEMT 
12nm E 
240145Z 05004KT 10SM SCT031 BKN036 16/11 A3000
KLGB 
14nm S 
240353Z 21005KT 10SM CLR 16/11 A3001 RMK AO2 SLP161 T01560106
KWHP 
15nm NW 
240255Z 00000KT 9SM BKN028 BKN033 OVC047 14/09 A3003
KVNY 
15nm NW 
240351Z 00000KT 10SM FEW030 14/09 A3001 RMK AO2 SLP157 T01390089
KTOA 
16nm S 
240149Z 00000KT 10SM SCT020 BKN035 17/10 A2999
TAF
KLAX 
9nm SW 
232040Z 2321/2424 23011KT P6SM BKN028 OVC045 FM240200 26007KT P6SM SCT060 BKN200 FM240600 VRB03KT P6SM BKN020 FM241700 24006KT P6SM BKN025 FM242000 25010KT P6SM SCT030
KSMO 
10nm W 
231739Z 2318/2418 11005KT P6SM BKN024 OVC040 FM232000 23010KT P6SM SCT025 BKN060 FM240200 VRB03KT P6SM SCT060 BKN200 FM240600 VRB03KT P6SM BKN020 FM241600 23005KT P6SM BKN025
KBUR 
11nm NW 
231846Z 2319/2418 13014KT P6SM SCT025 BKN045 OVC100 FM232000 18010KT P6SM BKN035 BKN060 FM240300 VRB03KT P6SM SCT060 BKN200 FM240700 VRB03KT P6SM BKN015 FM241400 14005KT P6SM BKN020
KLGB 
14nm S 
231739Z 2318/2418 14008KT P6SM BKN023 OVC100 FM232000 20012KT P6SM SCT025 BKN060 FM240200 21007KT P6SM SCT060 BKN200 FM240700 VRB03KT P6SM BKN020 FM241600 16005KT P6SM BKN025
KVNY 
15nm NW 
231739Z 2318/2418 14007KT P6SM BKN022 OVC045 FM232000 15010KT P6SM BKN025 BKN060 FM240300 VRB03KT P6SM SCT060 BKN200 FM240700 VRB03KT P6SM BKN015 FM241400 14005KT P6SM BKN020
KSLI 
20nm SE 
232110Z 2321/2503 25009KT 9999 SCT020 BKN030 QNH2992INS BECMG 2403/2404 VRB06KT 9999 SCT010 BKN020 QNH2997INS BECMG 2416/2417 18009KT 9999 BKN020 QNH2994INS BECMG 2423/2424 21009KT 9999 SCT030 QNH2998INS TX19/2322Z TN14/2413Z
NOTAMs
Click for the latest NOTAMs
NOTAMs are issued by the DoD/FAA and will open in a separate window not controlled by AirNav.

 

 
 

Would you like to see your business listed on this page?

 If your business provides an interesting product or service to pilots, flight crews, aircraft, or users of the California Mart Heliport, you should consider listing it here.  To start the listing process, click on the button below
 
Add a business
 

Other Pages about California Mart Heliport

Update a link
 
Copyright © AirNav, LLC. All rights reserved. Privacy Policy  Contact